Douglas, AK

6:11 AM AKDT on July 20, 2017 (GMT -0800)
West Juneau | | Change Station

Elev 167 ft 58.29 °N, 134.42 °W | Updated 1 minute ago

Overcast
Overcast
54.2 °F
Feels Like 54.2 °F
N
0.0
Wind Variable Wind from ESE

Today
High -- | Low -- °F
--% Chance of Precip.
Yesterday
High -- | Low -- °F
Precip. -- in
Pressure 29.97 in
Visibility 10.0 miles
Clouds Few 4000 ft
Overcast 6500 ft
Dew Point 52 °F
Humidity 95%
Rainfall 0.00 in
Snow Depth Not available.
4:26 AM 9:40 PM
Waning Crescent, 11% visible
METAR PAJN 201353Z 00000KT 10SM FEW040 OVC065 12/10 A2997 RMK AO2 SLP147 T01170100
Pressure 29.97 in
Visibility 10.0 miles
Clouds Few 4000 ft
Overcast 6500 ft
Dew Point 52 °F
Humidity 95%
Rainfall 0.00 in
Snow Depth Not available.
4:26 AM 9:40 PM
Waning Crescent, 11% visible
METAR PAJN 201353Z 00000KT 10SM FEW040 OVC065 12/10 A2997 RMK AO2 SLP147 T01170100

Get Severe Weather Alerts

Thanks for signing up!

Be on the lookout for a verification email in your inbox.

You'll start receiving the daily forecast at 6 AM.

×

10-Day Weather Forecast

Almanac

Astronomy

Jul. 20, 2017 Rise Set
Actual Time
Civil Twilight
Nautical Twilight
Astronomical Twilight
Moon
Length of Visible Light
Length of Day
Tomorrow will be .
, % of the Moon is Illuminated

Today's Extremes

State Highs State Lows

Community

WunderPhotos

Category 6

Welcome to Category 6. This is the collective home for Weather Underground's featured writeups by Dr. Jeff Masters (right), Bob Henson (left), Chris Burt, and other regular contributors.

Nearby

Air Quality

  Air Quality AQ Index Pollutant
Not available.

Snow Depth

Station Depth Elevation

Earthquake Activity

City Distance Mag. Time & Date
Minimum magnitude displayed is 2.5.

Coastal Water Temperatures

Place Temperature

Stations

Nearby Weather Stations

Station Location Temp. Windchill Dew Point Humidity Wind Precip. Elev Updated Type
                   

Watches & Warnings

There are currently no watches in effect.